createdAt,value
2022-09-29T00:01:16.622Z,1.92
2022-09-29T00:04:03.425Z,2.35
2022-09-29T00:06:50.189Z,2.33
2022-09-29T00:09:37.020Z,2.15
2022-09-29T00:12:24.154Z,1.95
2022-09-29T00:15:11.547Z,2.30
2022-09-29T00:18:13.150Z,1.83
2022-09-29T00:21:02.539Z,2.03
2022-09-29T00:23:50.101Z,1.80
2022-09-29T00:26:37.405Z,1.55
2022-09-29T00:29:24.283Z,1.48
2022-09-29T00:32:11.269Z,1.55
2022-09-29T00:34:58.032Z,1.55
2022-09-29T00:37:44.978Z,2.15
2022-09-29T00:40:31.820Z,1.77
2022-09-29T00:43:48.412Z,2.15
2022-09-29T00:46:44.172Z,1.60
2022-09-29T00:49:39.780Z,1.92
2022-09-29T00:52:33.216Z,2.20
2022-09-29T00:55:28.764Z,1.73
2022-09-29T00:58:23.109Z,2.38
2022-09-29T01:01:11.255Z,0.93
2022-09-29T01:04:08.619Z,1.58
2022-09-29T01:06:58.174Z,1.63
2022-09-29T01:09:45.641Z,1.75
2022-09-29T01:12:32.844Z,1.60
2022-09-29T01:15:21.299Z,2.08
2022-09-29T01:18:08.179Z,1.75
2022-09-29T01:21:03.390Z,1.30
2022-09-29T01:24:28.535Z,1.50
2022-09-29T01:27:35.824Z,1.40
2022-09-29T01:30:50.827Z,1.73
2022-09-29T01:33:51.186Z,1.27
2022-09-29T01:36:59.971Z,1.67
2022-09-29T01:40:15.453Z,1.35
2022-09-29T01:43:20.436Z,1.20
2022-09-29T01:46:31.135Z,0.98
2022-09-29T01:49:21.906Z,1.02
2022-09-29T01:52:23.415Z,1.65
2022-09-29T01:55:19.163Z,1.27
2022-09-29T01:58:10.174Z,1.58
2022-09-29T02:01:01.051Z,1.60
2022-09-29T02:03:54.043Z,1.42
2022-09-29T02:06:49.419Z,1.40
2022-09-29T02:09:42.635Z,1.15
2022-09-29T02:12:32.560Z,1.85
2022-09-29T02:15:26.726Z,1.23
2022-09-29T02:18:21.675Z,1.25
2022-09-29T02:21:10.921Z,2.15
2022-09-29T02:23:58.119Z,1.83
2022-09-29T02:26:45.645Z,1.83
2022-09-29T02:29:35.622Z,1.58
2022-09-29T02:32:25.529Z,1.15
2022-09-29T02:34:54.472Z,1.25
2022-09-29T02:37:28.705Z,1.55
2022-09-29T02:40:18.405Z,1.90
2022-09-29T02:43:05.467Z,1.30
2022-09-29T02:45:48.950Z,1.55
2022-09-29T02:48:30.606Z,1.60
2022-09-29T02:51:02.863Z,1.73
2022-09-29T02:53:50.011Z,1.20
2022-09-29T02:56:31.601Z,1.70
2022-09-29T02:59:03.611Z,0.88
2022-09-29T03:01:34.122Z,1.35
2022-09-29T03:04:04.490Z,2.10
2022-09-29T03:06:31.430Z,1.10
2022-09-29T03:08:57.859Z,1.48
2022-09-29T03:11:24.430Z,1.98
2022-09-29T03:13:50.937Z,1.27
2022-09-29T03:16:17.414Z,1.08
2022-09-29T03:18:44.077Z,1.35
2022-09-29T03:21:10.534Z,1.50
2022-09-29T03:23:36.948Z,1.27
2022-09-29T03:26:03.493Z,1.63
2022-09-29T03:28:29.957Z,1.45
2022-09-29T03:31:03.929Z,2.67
2022-09-29T03:33:30.438Z,1.30
2022-09-29T03:35:56.888Z,1.05
2022-09-29T03:38:23.358Z,1.60
2022-09-29T03:40:49.843Z,1.50
2022-09-29T03:43:16.343Z,1.83
2022-09-29T03:45:52.806Z,1.10
2022-09-29T03:48:22.977Z,1.40
2022-09-29T03:50:51.841Z,1.65
2022-09-29T03:53:20.731Z,1.75
2022-09-29T03:55:50.035Z,1.23
2022-09-29T03:58:17.716Z,1.23
2022-09-29T04:00:44.916Z,1.45
2022-09-29T04:03:11.687Z,1.55
2022-09-29T04:05:40.324Z,1.08
2022-09-29T04:08:10.132Z,1.10
2022-09-29T04:10:40.229Z,1.27
2022-09-29T04:13:07.696Z,1.45
2022-09-29T04:15:34.820Z,1.60
2022-09-29T04:18:01.321Z,1.88
2022-09-29T04:20:28.167Z,1.38
2022-09-29T04:22:54.615Z,1.70
2022-09-29T04:25:21.283Z,1.55
2022-09-29T04:27:50.483Z,1.38
2022-09-29T04:30:17.434Z,1.75
2022-09-29T04:32:43.926Z,1.77
2022-09-29T04:35:10.398Z,1.27
2022-09-29T04:37:36.893Z,1.58
2022-09-29T04:40:05.079Z,1.73
2022-09-29T04:42:34.083Z,2.15
2022-09-29T04:45:00.697Z,1.83
2022-09-29T04:47:29.237Z,1.27
2022-09-29T04:49:58.190Z,1.38
2022-09-29T04:52:26.913Z,1.75
2022-09-29T04:54:55.466Z,1.58
2022-09-29T04:57:21.920Z,1.42
2022-09-29T04:59:51.703Z,1.50
2022-09-29T05:02:20.900Z,0.95
2022-09-29T05:04:51.998Z,1.83
2022-09-29T05:07:18.446Z,1.60
2022-09-29T05:09:49.171Z,1.65
2022-09-29T05:12:15.720Z,1.85
2022-09-29T05:14:42.163Z,1.35
2022-09-29T05:17:10.675Z,1.15
2022-09-29T05:19:39.905Z,1.45
2022-09-29T05:22:06.361Z,1.60
2022-09-29T05:24:32.789Z,1.65
2022-09-29T05:26:59.546Z,0.98
2022-09-29T05:29:26.285Z,1.42
2022-09-29T05:31:52.851Z,1.92
2022-09-29T05:34:19.471Z,1.63
2022-09-29T05:36:45.954Z,2.13
2022-09-29T05:39:12.441Z,1.23
2022-09-29T05:41:38.985Z,1.77
2022-09-29T05:44:07.957Z,2.00
2022-09-29T05:46:35.126Z,1.52
2022-09-29T05:49:01.724Z,1.25
2022-09-29T05:51:32.512Z,1.38
2022-09-29T05:54:01.417Z,1.67
2022-09-29T05:56:28.137Z,2.08
2022-09-29T05:58:54.933Z,1.25
2022-09-29T06:01:26.055Z,2.25
2022-09-29T06:03:56.697Z,1.23
2022-09-29T06:06:25.585Z,1.02
2022-09-29T06:08:52.604Z,1.50
2022-09-29T06:11:24.653Z,1.42
2022-09-29T06:13:52.894Z,1.52
2022-09-29T06:16:24.286Z,1.80
2022-09-29T06:18:51.281Z,1.38
2022-09-29T06:21:26.114Z,2.13
2022-09-29T06:23:54.999Z,2.00
2022-09-29T06:26:24.912Z,1.40
2022-09-29T06:28:52.930Z,1.98
2022-09-29T06:31:22.414Z,2.38
2022-09-29T06:33:49.057Z,3.10
2022-09-29T06:36:44.366Z,3.42
2022-09-29T06:39:16.007Z,1.45
2022-09-29T06:41:53.729Z,2.15
2022-09-29T06:44:28.270Z,1.50
2022-09-29T06:46:55.237Z,1.45
2022-09-29T06:49:24.169Z,1.77
2022-09-29T06:51:55.722Z,2.60
2022-09-29T06:54:26.696Z,1.50
2022-09-29T06:56:55.180Z,2.22
2022-09-29T06:59:25.190Z,1.73
2022-09-29T07:01:54.145Z,1.23
2022-09-29T07:04:23.514Z,0.93
2022-09-29T07:06:52.896Z,2.75
2022-09-29T07:09:23.187Z,2.15
2022-09-29T07:11:52.964Z,1.55
2022-09-29T07:14:22.530Z,2.20
2022-09-29T07:16:51.057Z,2.10
2022-09-29T07:19:21.106Z,2.28
2022-09-29T07:21:50.455Z,1.90
2022-09-29T07:24:17.385Z,1.40
2022-09-29T07:26:44.246Z,1.73
2022-09-29T07:29:15.852Z,1.35
2022-09-29T07:31:51.014Z,2.03
2022-09-29T07:34:19.605Z,1.90
2022-09-29T07:36:46.104Z,2.53
2022-09-29T07:39:12.961Z,2.15
2022-09-29T07:41:39.487Z,2.60
2022-09-29T07:44:06.240Z,1.50
2022-09-29T07:46:32.961Z,2.92
2022-09-29T07:49:02.249Z,2.60
2022-09-29T07:51:28.848Z,2.10
2022-09-29T07:54:01.545Z,2.65
2022-09-29T07:56:30.270Z,2.90
2022-09-29T07:58:57.137Z,2.42
2022-09-29T08:01:23.630Z,2.13
2022-09-29T08:03:55.004Z,3.10
2022-09-29T08:06:26.372Z,2.20
2022-09-29T08:09:04.774Z,2.28
2022-09-29T08:11:36.618Z,3.03
2022-09-29T08:14:03.184Z,2.30
2022-09-29T08:16:30.251Z,3.15
2022-09-29T08:18:56.838Z,3.17
2022-09-29T08:21:23.389Z,3.20
2022-09-29T08:23:49.927Z,3.00
2022-09-29T08:26:20.767Z,2.90
2022-09-29T08:28:57.362Z,2.80
2022-09-29T08:31:30.841Z,3.22
2022-09-29T08:34:01.230Z,2.53
2022-09-29T08:36:27.692Z,2.80
2022-09-29T08:38:56.504Z,2.30
2022-09-29T08:41:52.239Z,2.90
2022-09-29T08:44:39.674Z,2.42
2022-09-29T08:47:41.314Z,1.90
2022-09-29T08:50:31.212Z,1.80
2022-09-29T08:53:03.400Z,1.83
2022-09-29T08:55:56.289Z,1.83
2022-09-29T08:58:23.175Z,2.03
2022-09-29T09:01:09.492Z,2.25
2022-09-29T09:03:56.678Z,1.80
2022-09-29T09:06:47.470Z,1.77
2022-09-29T09:09:46.081Z,2.40
2022-09-29T09:12:29.254Z,1.85
2022-09-29T09:15:04.458Z,2.10
2022-09-29T09:17:45.148Z,1.80
2022-09-29T09:20:25.605Z,1.05
2022-09-29T09:23:00.986Z,2.88
2022-09-29T09:25:35.535Z,1.42
2022-09-29T09:28:29.656Z,1.58
2022-09-29T09:31:05.598Z,1.27
2022-09-29T09:33:39.452Z,2.35
2022-09-29T09:36:24.702Z,1.65
2022-09-29T09:39:00.894Z,2.45
2022-09-29T09:41:33.439Z,1.98
2022-09-29T09:44:08.140Z,2.50
2022-09-29T09:46:45.015Z,2.58
2022-09-29T09:49:13.784Z,1.95
2022-09-29T09:51:49.624Z,2.10
2022-09-29T09:54:38.938Z,3.08
2022-09-29T09:57:38.665Z,2.13
2022-09-29T10:00:32.395Z,2.25
2022-09-29T10:03:07.199Z,2.40
2022-09-29T10:05:40.978Z,1.65
2022-09-29T10:08:12.727Z,2.40
2022-09-29T10:10:51.039Z,2.58
2022-09-29T10:13:29.372Z,1.60
2022-09-29T10:16:13.286Z,2.13
2022-09-29T10:18:52.497Z,2.55
2022-09-29T10:21:29.581Z,2.35
2022-09-29T10:23:58.021Z,2.58
2022-09-29T10:26:32.553Z,2.70
2022-09-29T10:29:03.912Z,2.97
2022-09-29T10:31:36.275Z,2.67
2022-09-29T10:34:23.468Z,1.98
2022-09-29T10:36:58.040Z,2.47
2022-09-29T10:39:30.701Z,1.83
2022-09-29T10:41:57.168Z,2.88
2022-09-29T10:44:23.678Z,2.17
2022-09-29T10:46:54.120Z,2.20
2022-09-29T10:49:22.067Z,2.15
2022-09-29T10:52:04.391Z,1.80
2022-09-29T10:54:39.845Z,2.17
2022-09-29T10:57:15.507Z,2.00
2022-09-29T10:59:50.492Z,2.10
2022-09-29T11:02:27.779Z,1.25
2022-09-29T11:04:58.159Z,2.10
2022-09-29T11:07:25.656Z,1.52
2022-09-29T11:09:54.707Z,2.10
2022-09-29T11:12:31.819Z,1.85
2022-09-29T11:15:00.211Z,2.00
2022-09-29T11:17:26.686Z,1.55
2022-09-29T11:19:55.937Z,2.58
2022-09-29T11:22:49.080Z,1.65
2022-09-29T11:25:53.071Z,2.00
2022-09-29T11:28:34.094Z,1.73
2022-09-29T11:31:09.638Z,1.98
2022-09-29T11:33:39.082Z,1.73
2022-09-29T11:36:21.886Z,1.50
2022-09-29T11:39:00.515Z,1.60
2022-09-29T11:41:46.991Z,1.67
2022-09-29T11:44:32.577Z,1.83
2022-09-29T11:47:01.933Z,1.63
2022-09-29T11:49:31.297Z,1.48
2022-09-29T11:52:09.874Z,1.67
2022-09-29T11:54:42.366Z,2.05
2022-09-29T11:57:33.536Z,1.30
2022-09-29T12:00:16.843Z,1.50
2022-09-29T12:03:13.380Z,1.20
2022-09-29T12:05:49.374Z,1.27
2022-09-29T12:09:00.930Z,1.55
2022-09-29T12:11:50.982Z,1.45
2022-09-29T12:15:05.396Z,1.88
2022-09-29T12:17:37.159Z,1.60
2022-09-29T12:20:20.180Z,0.98
2022-09-29T12:22:49.910Z,1.50
2022-09-29T12:25:19.865Z,1.70
2022-09-29T12:27:49.562Z,1.05
2022-09-29T12:30:24.048Z,1.38
2022-09-29T12:33:11.238Z,1.60
2022-09-29T12:35:57.882Z,1.17
2022-09-29T12:38:45.075Z,1.27
2022-09-29T12:41:44.613Z,1.85
2022-09-29T12:44:25.493Z,1.30
2022-09-29T12:46:57.999Z,1.27
2022-09-29T12:49:31.843Z,1.42
2022-09-29T12:52:01.467Z,1.30
2022-09-29T12:54:42.001Z,1.48
2022-09-29T12:57:15.016Z,1.60
2022-09-29T13:02:39.870Z,1.50
2022-09-29T13:05:26.826Z,1.75
2022-09-29T13:08:21.364Z,1.35
2022-09-29T13:11:03.182Z,1.35
2022-09-29T13:13:46.911Z,1.30
2022-09-29T13:16:17.930Z,1.20
2022-09-29T13:18:59.663Z,1.67
2022-09-29T13:22:02.012Z,1.20
2022-09-29T13:25:00.220Z,1.33
2022-09-29T13:27:32.698Z,1.30
2022-09-29T13:30:25.494Z,1.88
2022-09-29T13:33:08.584Z,1.63
2022-09-29T13:35:47.341Z,1.42
2022-09-29T13:38:39.138Z,1.27
2022-09-29T13:41:12.212Z,1.50
2022-09-29T13:43:49.944Z,2.00
2022-09-29T13:46:31.811Z,1.90
2022-09-29T13:49:13.336Z,1.77
2022-09-29T13:51:54.325Z,1.70
2022-09-29T13:54:22.078Z,1.60
2022-09-29T13:57:11.843Z,1.30
2022-09-29T14:00:00.321Z,1.20
2022-09-29T14:02:37.704Z,1.30
2022-09-29T14:05:06.592Z,1.25
2022-09-29T14:07:49.716Z,2.00
2022-09-29T14:13:12.177Z,1.63
2022-09-29T14:15:51.849Z,1.55
2022-09-29T14:18:40.512Z,1.65
2022-09-29T14:21:14.631Z,1.45
2022-09-29T14:23:49.082Z,2.13
2022-09-29T14:26:52.698Z,1.50
2022-09-29T14:29:40.900Z,2.10
2022-09-29T14:32:18.116Z,1.83
2022-09-29T14:34:46.002Z,1.67
2022-09-29T14:37:20.402Z,2.00
2022-09-29T14:40:07.665Z,1.80
2022-09-29T14:42:36.413Z,2.08
2022-09-29T14:45:25.278Z,1.70
2022-09-29T14:48:44.076Z,2.45
2022-09-29T14:51:45.636Z,1.92
2022-09-29T14:54:50.582Z,1.90
2022-09-29T14:57:33.057Z,1.50
2022-09-29T15:00:19.036Z,2.28
2022-09-29T15:02:59.646Z,1.85
2022-09-29T15:05:33.811Z,1.92
2022-09-29T15:08:23.759Z,2.25
2022-09-29T15:10:50.363Z,1.40
2022-09-29T15:13:30.211Z,1.85
2022-09-29T15:16:22.522Z,2.00
2022-09-29T15:18:57.440Z,1.52
2022-09-29T15:21:55.494Z,1.52
2022-09-29T15:24:39.828Z,1.08
2022-09-29T15:27:13.035Z,1.17
2022-09-29T15:29:39.622Z,1.88
2022-09-29T15:32:30.192Z,1.30
2022-09-29T15:35:04.199Z,1.67
2022-09-29T15:37:55.028Z,2.03
2022-09-29T15:40:26.572Z,2.22
2022-09-29T15:42:56.211Z,2.10
2022-09-29T15:45:28.309Z,1.60
2022-09-29T15:48:01.738Z,2.00
2022-09-29T15:50:31.977Z,1.70
2022-09-29T15:53:03.419Z,1.77
2022-09-29T15:55:33.144Z,1.55
2022-09-29T15:58:02.084Z,2.10
2022-09-29T16:00:37.578Z,1.48
2022-09-29T16:03:07.116Z,1.70
2022-09-29T16:05:42.938Z,1.75
2022-09-29T16:08:24.601Z,1.25
2022-09-29T16:10:55.559Z,1.63
2022-09-29T16:13:29.090Z,1.80
2022-09-29T16:16:00.023Z,1.90
2022-09-29T16:18:29.192Z,3.10
2022-09-29T16:20:59.904Z,2.75
2022-09-29T16:23:37.251Z,2.47
2022-09-29T16:26:10.033Z,2.17
2022-09-29T16:28:39.023Z,1.38
2022-09-29T16:31:27.186Z,2.10
2022-09-29T16:34:02.605Z,1.75
2022-09-29T16:36:36.571Z,2.13
2022-09-29T16:39:06.992Z,1.50
2022-09-29T16:41:40.499Z,1.83
2022-09-29T16:44:13.094Z,1.63
2022-09-29T16:47:02.425Z,1.83
2022-09-29T16:49:37.452Z,2.25
2022-09-29T16:52:26.011Z,2.20
2022-09-29T16:55:16.847Z,2.60
2022-09-29T16:58:02.076Z,2.03
2022-09-29T17:00:31.925Z,1.83
2022-09-29T17:02:58.578Z,1.77
2022-09-29T17:05:49.382Z,1.75
2022-09-29T17:08:38.667Z,1.65
2022-09-29T17:11:27.643Z,2.20
2022-09-29T17:14:14.510Z,2.28
2022-09-29T17:17:02.624Z,2.25
2022-09-29T17:19:50.782Z,2.53
2022-09-29T17:22:37.562Z,2.42
2022-09-29T17:25:24.366Z,2.10
2022-09-29T17:28:16.301Z,2.35
2022-09-29T17:31:05.952Z,1.88
2022-09-29T17:33:52.789Z,2.13
2022-09-29T17:36:39.739Z,1.77
2022-09-29T17:39:26.662Z,1.88
2022-09-29T17:42:13.555Z,2.15
2022-09-29T17:45:00.322Z,1.67
2022-09-29T17:47:50.534Z,2.38
2022-09-29T17:50:43.920Z,2.47
2022-09-29T17:53:30.746Z,2.47
2022-09-29T17:56:25.852Z,2.50
2022-09-29T17:59:14.231Z,1.90
2022-09-29T18:02:02.097Z,2.30
2022-09-29T18:04:51.433Z,1.80
2022-09-29T18:07:38.348Z,1.73
2022-09-29T18:10:39.869Z,2.28
2022-09-29T18:13:29.153Z,1.75
2022-09-29T18:16:18.975Z,2.10
2022-09-29T18:19:16.917Z,2.30
2022-09-29T18:22:06.693Z,2.90
2022-09-29T18:24:53.474Z,2.88
2022-09-29T18:27:42.747Z,1.95
2022-09-29T18:30:39.498Z,2.35
2022-09-29T18:33:28.238Z,2.55
2022-09-29T18:36:15.003Z,2.47
2022-09-29T18:39:01.808Z,2.47
2022-09-29T18:41:48.571Z,2.17
2022-09-29T18:44:36.644Z,2.58
2022-09-29T18:47:23.542Z,2.42
2022-09-29T18:50:22.791Z,2.00
2022-09-29T18:53:10.892Z,2.42
2022-09-29T18:56:01.949Z,2.65
2022-09-29T18:58:48.719Z,2.17
2022-09-29T19:01:35.963Z,2.03
2022-09-29T19:04:22.937Z,1.80
2022-09-29T19:07:12.231Z,2.13
2022-09-29T19:09:59.266Z,2.85
2022-09-29T19:12:48.209Z,2.75
2022-09-29T19:15:40.093Z,2.63
2022-09-29T19:18:27.219Z,2.08
2022-09-29T19:21:14.654Z,2.72
2022-09-29T19:24:01.764Z,3.15
2022-09-29T19:26:48.550Z,3.75
2022-09-29T19:29:35.370Z,2.78
2022-09-29T19:32:22.921Z,3.40
2022-09-29T19:35:16.820Z,3.05
2022-09-29T19:38:04.891Z,3.13
2022-09-29T19:40:51.801Z,2.78
2022-09-29T19:43:38.730Z,2.15
2022-09-29T19:46:25.670Z,2.53
2022-09-29T19:49:12.473Z,3.58
2022-09-29T19:51:59.319Z,3.25
2022-09-29T19:54:46.082Z,2.22
2022-09-29T19:57:32.837Z,3.13
2022-09-29T20:00:21.346Z,3.45
2022-09-29T20:03:09.658Z,2.22
2022-09-29T20:06:06.554Z,3.35
2022-09-29T20:08:53.342Z,3.33
2022-09-29T20:11:40.936Z,2.83
2022-09-29T20:14:28.459Z,2.95
2022-09-29T20:17:15.276Z,3.25
2022-09-29T20:20:04.848Z,2.95
2022-09-29T20:22:53.300Z,3.40
2022-09-29T20:25:40.095Z,2.10
2022-09-29T20:28:29.200Z,3.15
2022-09-29T20:31:16.071Z,3.42
2022-09-29T20:34:02.965Z,2.47
2022-09-29T20:36:54.460Z,3.17
2022-09-29T20:39:42.372Z,3.58
2022-09-29T20:42:33.108Z,3.22
2022-09-29T20:45:19.880Z,2.88
2022-09-29T20:48:07.336Z,3.88
2022-09-29T20:50:54.088Z,3.55
2022-09-29T20:53:49.747Z,4.10
2022-09-29T20:56:41.629Z,3.92
2022-09-29T20:59:32.251Z,3.58
2022-09-29T21:02:19.140Z,4.75
2022-09-29T21:05:06.219Z,3.78
2022-09-29T21:07:54.020Z,3.25
2022-09-29T21:10:40.767Z,3.95
2022-09-29T21:13:29.501Z,3.47
2022-09-29T21:16:16.429Z,4.40
2022-09-29T21:19:04.212Z,4.07
2022-09-29T21:21:51.390Z,4.45
2022-09-29T21:24:39.142Z,3.17
2022-09-29T21:27:26.008Z,4.57
2022-09-29T21:30:12.798Z,3.50
2022-09-29T21:33:00.282Z,4.03
2022-09-29T21:35:55.783Z,4.00
2022-09-29T21:38:43.908Z,5.75
2022-09-29T21:41:36.047Z,3.38
2022-09-29T21:44:24.067Z,4.05
2022-09-29T21:47:13.515Z,3.97
2022-09-29T21:50:00.270Z,3.47
2022-09-29T21:52:47.112Z,3.45
2022-09-29T21:55:33.964Z,3.25
2022-09-29T21:58:20.717Z,2.95
2022-09-29T22:01:11.356Z,3.30
2022-09-29T22:03:58.843Z,2.75
2022-09-29T22:06:46.090Z,3.30
2022-09-29T22:09:35.318Z,3.67
2022-09-29T22:12:23.247Z,3.58
2022-09-29T22:15:10.024Z,4.10
2022-09-29T22:17:56.773Z,4.05
2022-09-29T22:20:43.634Z,3.92
2022-09-29T22:23:31.449Z,3.30
2022-09-29T22:26:20.957Z,2.97
2022-09-29T22:29:07.961Z,3.92
2022-09-29T22:31:54.782Z,2.63
2022-09-29T22:34:41.594Z,3.17
2022-09-29T22:37:31.002Z,3.53
2022-09-29T22:40:18.011Z,4.05
2022-09-29T22:43:06.561Z,3.42
2022-09-29T22:45:53.384Z,3.65
2022-09-29T22:48:40.228Z,3.83
2022-09-29T22:51:28.377Z,4.25
2022-09-29T22:54:15.278Z,2.90
2022-09-29T22:57:06.052Z,3.35
2022-09-29T22:59:52.874Z,4.00
2022-09-29T23:02:39.626Z,3.35
2022-09-29T23:05:26.512Z,3.97
2022-09-29T23:08:13.813Z,3.15
2022-09-29T23:11:04.379Z,3.17
2022-09-29T23:13:52.812Z,3.13
2022-09-29T23:16:39.797Z,2.90
2022-09-29T23:19:26.663Z,3.47
2022-09-29T23:22:13.643Z,3.63
2022-09-29T23:25:00.490Z,3.75
2022-09-29T23:27:49.628Z,2.65
2022-09-29T23:30:38.624Z,2.17
2022-09-29T23:33:25.368Z,3.70
2022-09-29T23:36:15.258Z,2.53
2022-09-29T23:39:11.394Z,2.55
2022-09-29T23:41:58.282Z,2.67
2022-09-29T23:44:45.106Z,2.65
2022-09-29T23:47:31.862Z,3.17
2022-09-29T23:50:18.920Z,2.47
2022-09-29T23:53:05.709Z,2.53
2022-09-29T23:55:52.484Z,2.65
2022-09-29T23:58:39.311Z,2.92
